createdAt,value
2023-04-21T00:00:35.511Z,45.20
2023-04-21T00:03:03.581Z,44.87
2023-04-21T00:05:31.500Z,45.80
2023-04-21T00:07:59.124Z,45.27
2023-04-21T00:10:27.254Z,45.58
2023-04-21T00:12:54.683Z,45.30
2023-04-21T00:15:22.054Z,45.82
2023-04-21T00:17:49.747Z,46.48
2023-04-21T00:20:17.171Z,47.38
2023-04-21T00:22:44.601Z,46.26
2023-04-21T00:25:12.290Z,45.59
2023-04-21T00:27:39.701Z,46.00
2023-04-21T00:30:07.809Z,46.79
2023-04-21T00:32:37.670Z,47.47
2023-04-21T00:35:05.498Z,45.82
2023-04-21T00:37:34.062Z,45.52
2023-04-21T00:40:01.859Z,46.21
2023-04-21T00:42:29.266Z,45.21
2023-04-21T00:44:56.855Z,44.64
2023-04-21T00:47:25.440Z,45.29
2023-04-21T00:49:52.913Z,44.64
2023-04-21T00:52:20.370Z,44.51
2023-04-21T00:54:48.741Z,44.31
2023-04-21T00:57:16.750Z,45.52
2023-04-21T00:59:44.307Z,44.85
2023-04-21T01:02:12.144Z,45.07
2023-04-21T01:04:40.271Z,44.53
2023-04-21T01:07:08.679Z,44.33
2023-04-21T01:09:36.375Z,44.52
2023-04-21T01:12:09.692Z,45.13
2023-04-21T01:14:38.918Z,46.03
2023-04-21T01:17:07.865Z,45.64
2023-04-21T01:19:41.924Z,44.41
2023-04-21T01:22:13.342Z,43.72
2023-04-21T01:24:42.372Z,44.14
2023-04-21T01:27:14.695Z,44.00
2023-04-21T01:29:43.578Z,45.22
2023-04-21T01:32:14.858Z,43.06
2023-04-21T01:34:43.050Z,43.20
2023-04-21T01:37:13.138Z,42.67
2023-04-21T01:39:46.678Z,42.57
2023-04-21T01:42:14.415Z,42.04
2023-04-21T01:44:42.796Z,42.76
2023-04-21T01:47:11.391Z,43.59
2023-04-21T01:49:40.196Z,42.24
2023-04-21T01:52:07.729Z,42.60
2023-04-21T01:54:35.571Z,42.56
2023-04-21T01:57:03.744Z,43.03
2023-04-21T01:59:31.159Z,42.68
2023-04-21T02:01:58.683Z,42.91
2023-04-21T02:04:26.601Z,42.43
2023-04-21T02:06:54.126Z,43.48
2023-04-21T02:09:21.713Z,42.45
2023-04-21T02:11:51.880Z,43.80
2023-04-21T02:14:19.269Z,43.50
2023-04-21T02:16:46.773Z,42.95
2023-04-21T02:19:14.529Z,43.78
2023-04-21T02:21:41.933Z,44.03
2023-04-21T02:24:09.531Z,44.18
2023-04-21T02:26:37.232Z,43.75
2023-04-21T02:29:04.603Z,43.14
2023-04-21T02:31:32.612Z,44.20
2023-04-21T02:34:01.774Z,44.50
2023-04-21T02:36:29.722Z,43.62
2023-04-21T02:38:57.968Z,44.02
2023-04-21T02:41:25.766Z,43.81
2023-04-21T02:43:53.183Z,46.92
2023-04-21T02:46:22.797Z,46.25
2023-04-21T02:48:50.550Z,45.02
2023-04-21T02:51:17.972Z,44.38
2023-04-21T02:53:45.425Z,44.08
2023-04-21T02:56:13.412Z,44.31
2023-04-21T02:58:40.828Z,43.48
2023-04-21T03:01:08.313Z,44.16
2023-04-21T03:03:36.508Z,43.71
2023-04-21T03:06:05.453Z,43.81
2023-04-21T03:08:32.860Z,42.68
2023-04-21T03:11:00.969Z,43.55
2023-04-21T03:13:28.631Z,43.89
2023-04-21T03:15:56.260Z,44.36
2023-04-21T03:18:24.282Z,42.60
2023-04-21T03:20:51.838Z,42.78
2023-04-21T03:23:19.197Z,41.79
2023-04-21T03:25:46.906Z,41.02
2023-04-21T03:28:14.374Z,42.55
2023-04-21T03:30:41.799Z,42.42
2023-04-21T03:33:09.511Z,41.60
2023-04-21T03:35:37.096Z,42.39
2023-04-21T03:38:04.766Z,42.64
2023-04-21T03:40:32.512Z,42.80
2023-04-21T03:43:00.009Z,42.73
2023-04-21T03:45:27.408Z,43.90
2023-04-21T03:47:55.871Z,43.24
2023-04-21T03:50:23.581Z,44.17
2023-04-21T03:52:50.970Z,44.07
2023-04-21T03:55:18.838Z,42.99
2023-04-21T03:57:46.201Z,42.30
2023-04-21T04:00:13.892Z,43.43
2023-04-21T04:02:41.766Z,44.29
2023-04-21T04:05:09.700Z,42.35
2023-04-21T04:07:37.359Z,42.44
2023-04-21T04:10:04.984Z,41.71
2023-04-21T04:12:32.664Z,41.43
2023-04-21T04:15:00.118Z,42.05
2023-04-21T04:17:27.571Z,41.67
2023-04-21T04:19:55.257Z,41.20
2023-04-21T04:22:22.621Z,41.47
2023-04-21T04:24:50.104Z,41.76
2023-04-21T04:27:18.051Z,41.60
2023-04-21T04:29:46.484Z,41.57
2023-04-21T04:32:15.306Z,40.58
2023-04-21T04:34:43.096Z,40.43
2023-04-21T04:37:11.084Z,40.36
2023-04-21T04:39:38.780Z,39.86
2023-04-21T04:42:09.463Z,38.94
2023-04-21T04:44:37.061Z,39.46
2023-04-21T04:47:04.729Z,39.17
2023-04-21T04:49:32.585Z,38.99
2023-04-21T04:51:59.952Z,38.63
2023-04-21T04:54:29.038Z,38.43
2023-04-21T04:56:57.995Z,38.01
2023-04-21T04:59:25.505Z,38.39
2023-04-21T05:01:53.029Z,38.97
2023-04-21T05:04:21.039Z,38.78
2023-04-21T05:06:48.951Z,38.71
2023-04-21T05:09:16.544Z,38.63
2023-04-21T05:11:44.190Z,36.97
2023-04-21T05:14:11.668Z,36.54
2023-04-21T05:16:39.277Z,36.35
2023-04-21T05:19:06.947Z,37.27
2023-04-21T05:21:34.385Z,35.27
2023-04-21T05:24:01.775Z,34.75
2023-04-21T05:26:29.929Z,32.12
2023-04-21T05:28:58.298Z,30.77
2023-04-21T05:31:25.935Z,29.24
2023-04-21T05:33:53.688Z,30.25
2023-04-21T05:36:21.119Z,31.07
2023-04-21T05:38:48.714Z,31.61
2023-04-21T05:41:16.404Z,31.73
2023-04-21T05:43:43.850Z,29.13
2023-04-21T05:46:11.593Z,26.92
2023-04-21T05:48:40.353Z,27.48
2023-04-21T05:51:12.114Z,28.76
2023-04-21T05:53:40.302Z,28.85
2023-04-21T05:56:11.011Z,29.12
2023-04-21T05:58:38.878Z,29.39
2023-04-21T06:01:06.616Z,30.14
2023-04-21T06:03:34.504Z,31.15
2023-04-21T06:06:03.801Z,31.59
2023-04-21T06:08:31.313Z,31.64
2023-04-21T06:10:59.084Z,32.54
2023-04-21T06:13:27.823Z,33.20
2023-04-21T06:15:55.387Z,33.95
2023-04-21T06:18:24.182Z,34.39
2023-04-21T06:20:52.631Z,34.18
2023-04-21T06:23:20.502Z,34.22
2023-04-21T06:26:04.214Z,35.01
2023-04-21T06:28:32.185Z,35.61
2023-04-21T06:31:01.125Z,35.40
2023-04-21T06:33:29.893Z,35.83
2023-04-21T06:35:57.390Z,35.52
2023-04-21T06:38:25.182Z,35.91
2023-04-21T06:40:52.599Z,36.53
2023-04-21T06:43:20.348Z,36.54
2023-04-21T06:45:48.174Z,35.72
2023-04-21T06:48:15.726Z,36.40
2023-04-21T06:50:44.700Z,35.76
2023-04-21T06:53:12.464Z,35.92
2023-04-21T06:55:39.880Z,36.57
2023-04-21T06:58:07.268Z,36.51
2023-04-21T07:00:34.924Z,36.13
2023-04-21T07:03:02.486Z,36.61
2023-04-21T07:05:29.973Z,37.30
2023-04-21T07:07:59.868Z,36.34
2023-04-21T07:10:27.688Z,35.41
2023-04-21T07:12:55.840Z,35.35
2023-04-21T07:15:23.538Z,35.31
2023-04-21T07:17:51.533Z,35.79
2023-04-21T07:20:19.124Z,36.86
2023-04-21T07:22:46.869Z,36.27
2023-04-21T07:25:14.283Z,35.91
2023-04-21T07:27:41.692Z,35.80
2023-04-21T07:30:09.759Z,36.08
2023-04-21T07:32:38.748Z,35.77
2023-04-21T07:35:07.260Z,35.40
2023-04-21T07:37:34.921Z,35.53
2023-04-21T07:40:02.334Z,35.23
2023-04-21T07:42:29.782Z,35.08
2023-04-21T07:44:57.702Z,35.80
2023-04-21T07:47:25.222Z,35.91
2023-04-21T07:49:52.899Z,35.71
2023-04-21T07:52:20.621Z,35.57
2023-04-21T07:54:48.141Z,35.93
2023-04-21T07:57:15.644Z,36.28
2023-04-21T07:59:43.548Z,35.13
2023-04-21T08:02:10.995Z,34.14
2023-04-21T08:04:38.809Z,34.26
2023-04-21T08:07:06.617Z,34.08
2023-04-21T08:09:34.142Z,34.49
2023-04-21T08:12:02.593Z,33.73
2023-04-21T08:14:30.021Z,33.82
2023-04-21T08:16:57.562Z,34.19
2023-04-21T08:19:25.642Z,33.66
2023-04-21T08:21:53.450Z,32.37
2023-04-21T08:24:21.124Z,32.64
2023-04-21T08:26:48.989Z,31.86
2023-04-21T08:29:16.469Z,33.21
2023-04-21T08:31:43.958Z,32.85
2023-04-21T08:34:11.696Z,32.45
2023-04-21T08:36:39.287Z,32.32
2023-04-21T08:39:07.045Z,32.10
2023-04-21T08:41:34.776Z,31.87
2023-04-21T08:44:02.656Z,31.73
2023-04-21T08:46:30.648Z,31.52
2023-04-21T08:48:58.972Z,30.92
2023-04-21T08:51:28.163Z,30.95
2023-04-21T08:53:55.985Z,31.21
2023-04-21T08:56:27.261Z,31.43
2023-04-21T08:58:54.795Z,31.11
2023-04-21T09:01:22.291Z,29.96
2023-04-21T09:03:50.298Z,30.49
2023-04-21T09:06:18.286Z,29.45
2023-04-21T09:08:56.037Z,29.99
2023-04-21T09:11:23.826Z,31.53
2023-04-21T09:13:51.844Z,29.79
2023-04-21T09:16:21.451Z,30.09
2023-04-21T09:18:50.332Z,30.61
2023-04-21T09:21:18.903Z,30.32
2023-04-21T09:23:47.039Z,29.65
2023-04-21T09:26:16.128Z,29.05
2023-04-21T09:28:44.598Z,29.52
2023-04-21T09:31:28.749Z,29.13
2023-04-21T09:34:00.020Z,28.70
2023-04-21T09:36:30.508Z,29.02
2023-04-21T09:41:33.995Z,28.24
2023-04-21T09:44:02.034Z,28.69
2023-04-21T09:46:32.069Z,28.49
2023-04-21T09:49:01.445Z,28.96
2023-04-21T09:51:49.189Z,28.56
2023-04-21T09:54:29.745Z,28.93
2023-04-21T09:57:01.824Z,26.62
2023-04-21T09:59:33.240Z,26.36
2023-04-21T10:02:02.431Z,25.93
2023-04-21T10:04:32.280Z,26.69
2023-04-21T10:07:03.412Z,26.23
2023-04-21T10:09:39.286Z,26.05
2023-04-21T10:12:09.481Z,26.44
2023-04-21T10:14:37.466Z,27.02
2023-04-21T10:17:06.718Z,27.48
2023-04-21T10:19:39.579Z,27.67
2023-04-21T10:22:09.154Z,27.03
2023-04-21T10:24:40.327Z,26.75
2023-04-21T10:27:12.658Z,27.42
2023-04-21T10:29:55.406Z,26.58
2023-04-21T10:32:42.700Z,26.61
2023-04-21T10:35:14.957Z,26.42
2023-04-21T10:37:43.039Z,27.32
2023-04-21T10:40:44.330Z,27.10
2023-04-21T10:43:49.323Z,25.91
2023-04-21T10:46:35.076Z,26.79
2023-04-21T10:49:09.790Z,26.36
2023-04-21T10:52:05.581Z,26.36
2023-04-21T10:54:50.011Z,26.91
2023-04-21T10:57:19.518Z,26.15
2023-04-21T10:59:48.229Z,25.59
2023-04-21T11:02:17.581Z,26.08
2023-04-21T11:04:48.794Z,25.47
2023-04-21T11:07:20.640Z,25.30
2023-04-21T11:09:50.269Z,24.91
2023-04-21T11:12:18.435Z,25.56
2023-04-21T11:14:49.684Z,26.28
2023-04-21T11:17:18.980Z,26.04
2023-04-21T11:19:53.886Z,26.10
2023-04-21T11:22:22.353Z,25.81
2023-04-21T11:24:53.442Z,26.05
2023-04-21T11:27:22.345Z,25.96
2023-04-21T11:29:50.534Z,25.60
2023-04-21T11:32:18.656Z,26.23
2023-04-21T11:34:46.322Z,25.89
2023-04-21T11:37:27.116Z,27.19
2023-04-21T11:40:01.455Z,26.87
2023-04-21T11:42:29.300Z,26.24
2023-04-21T11:44:57.756Z,26.97
2023-04-21T11:47:26.798Z,26.74
2023-04-21T11:49:59.490Z,27.08
2023-04-21T11:52:27.558Z,27.36
2023-04-21T11:55:03.270Z,26.63
2023-04-21T11:57:32.509Z,26.88
2023-04-21T12:00:04.645Z,26.42
2023-04-21T12:02:34.148Z,26.51
2023-04-21T12:05:08.727Z,25.80
2023-04-21T12:07:38.807Z,26.46
2023-04-21T12:10:11.802Z,26.18
2023-04-21T12:12:40.418Z,25.99
2023-04-21T12:15:09.671Z,26.72
2023-04-21T12:17:44.056Z,26.24
2023-04-21T12:20:12.828Z,26.78
2023-04-21T12:22:40.305Z,26.91
2023-04-21T12:25:09.047Z,26.83
2023-04-21T12:27:36.748Z,27.71
2023-04-21T12:30:04.705Z,27.12
2023-04-21T12:32:32.541Z,28.54
2023-04-21T12:35:01.789Z,28.09
2023-04-21T12:37:29.178Z,27.26
2023-04-21T12:39:57.330Z,27.48
2023-04-21T12:42:25.021Z,26.96
2023-04-21T12:44:52.454Z,26.56
2023-04-21T12:47:19.832Z,26.24
2023-04-21T12:49:47.523Z,26.77
2023-04-21T12:52:14.939Z,26.65
2023-04-21T12:54:42.908Z,26.92
2023-04-21T12:57:10.711Z,27.07
2023-04-21T12:59:38.136Z,27.76
2023-04-21T13:02:05.726Z,27.87
2023-04-21T13:04:33.774Z,27.08
2023-04-21T13:07:01.336Z,27.85
2023-04-21T13:09:28.952Z,27.42
2023-04-21T13:11:56.829Z,27.01
2023-04-21T13:14:24.270Z,27.06
2023-04-21T13:16:52.770Z,26.87
2023-04-21T13:19:20.459Z,27.52
2023-04-21T13:21:48.275Z,28.15
2023-04-21T13:24:15.656Z,27.83
2023-04-21T13:26:43.486Z,28.20
2023-04-21T13:29:11.020Z,28.67
2023-04-21T13:31:38.652Z,28.73
2023-04-21T13:34:06.520Z,28.44
2023-04-21T13:36:33.974Z,29.19
2023-04-21T13:39:01.873Z,28.82
2023-04-21T13:41:29.715Z,28.74
2023-04-21T13:43:57.368Z,28.99
2023-04-21T13:46:24.813Z,28.76
2023-04-21T13:48:52.562Z,27.97
2023-04-21T13:51:20.699Z,29.21
2023-04-21T13:53:48.685Z,29.85
2023-04-21T13:56:17.057Z,29.58
2023-04-21T13:58:44.498Z,29.10
2023-04-21T14:01:14.270Z,27.76
2023-04-21T14:03:42.486Z,28.28
2023-04-21T14:06:10.356Z,27.49
2023-04-21T14:08:37.753Z,27.27
2023-04-21T14:11:06.488Z,27.56
2023-04-21T14:13:39.392Z,27.43
2023-04-21T14:16:12.809Z,27.83
2023-04-21T14:18:44.492Z,27.46
2023-04-21T14:21:12.049Z,27.69
2023-04-21T14:23:39.897Z,28.17
2023-04-21T14:26:07.313Z,27.83
2023-04-21T14:28:35.151Z,28.27
2023-04-21T14:31:04.266Z,27.85
2023-04-21T14:33:33.376Z,27.86
2023-04-21T14:36:01.026Z,27.88
2023-04-21T14:38:30.754Z,28.49
2023-04-21T14:40:58.231Z,28.07
2023-04-21T14:43:25.635Z,28.27
2023-04-21T14:45:53.393Z,28.33
2023-04-21T14:48:21.356Z,27.51
2023-04-21T14:50:49.224Z,28.03
2023-04-21T14:53:16.878Z,27.56
2023-04-21T14:55:44.508Z,27.13
2023-04-21T14:58:11.881Z,27.14
2023-04-21T15:00:39.605Z,27.69
2023-04-21T15:03:07.263Z,26.87
2023-04-21T15:05:35.016Z,26.97
2023-04-21T15:08:02.725Z,27.40
2023-04-21T15:10:32.341Z,27.36
2023-04-21T15:12:59.781Z,27.30
2023-04-21T15:15:27.534Z,27.41
2023-04-21T15:17:54.972Z,26.99
2023-04-21T15:20:32.505Z,26.80
2023-04-21T15:23:04.501Z,26.80
2023-04-21T15:25:31.945Z,26.70
2023-04-21T15:27:59.389Z,26.19
2023-04-21T15:30:27.202Z,26.44
2023-04-21T15:32:54.622Z,27.11
2023-04-21T15:35:22.041Z,27.16
2023-04-21T15:37:49.805Z,27.52
2023-04-21T15:40:17.305Z,27.35
2023-04-21T15:42:44.798Z,27.20
2023-04-21T15:45:12.540Z,27.47
2023-04-21T15:47:40.026Z,27.41
2023-04-21T15:50:07.766Z,27.13
2023-04-21T15:52:42.545Z,26.55
2023-04-21T15:55:13.260Z,27.09
2023-04-21T15:57:41.029Z,26.66
2023-04-21T16:00:10.325Z,26.36
2023-04-21T16:02:38.493Z,26.31
2023-04-21T16:05:06.798Z,26.82
2023-04-21T16:07:34.726Z,26.12
2023-04-21T16:10:02.619Z,25.69
2023-04-21T16:12:30.170Z,25.80
2023-04-21T16:15:04.119Z,26.89
2023-04-21T16:17:37.360Z,26.66
2023-04-21T16:20:05.644Z,26.63
2023-04-21T16:22:33.139Z,26.53
2023-04-21T16:25:01.791Z,26.60
2023-04-21T16:27:29.422Z,26.72
2023-04-21T16:29:56.865Z,26.69
2023-04-21T16:32:24.820Z,26.51
2023-04-21T16:34:52.362Z,26.58
2023-04-21T16:37:19.906Z,26.42
2023-04-21T16:39:47.605Z,26.42
2023-04-21T16:42:15.118Z,26.59
2023-04-21T16:44:42.575Z,26.88
2023-04-21T16:47:10.373Z,27.11
2023-04-21T16:49:37.802Z,27.10
2023-04-21T16:52:05.198Z,27.33
2023-04-21T16:54:33.250Z,27.39
2023-04-21T16:57:02.093Z,28.76
2023-04-21T16:59:30.809Z,29.00
2023-04-21T17:01:59.232Z,29.50
2023-04-21T17:04:26.705Z,30.12
2023-04-21T17:06:54.190Z,30.12
2023-04-21T17:09:21.862Z,30.20
2023-04-21T17:11:49.269Z,30.04
2023-04-21T17:14:16.693Z,30.28
2023-04-21T17:16:44.434Z,30.14
2023-04-21T17:19:11.900Z,30.77
2023-04-21T17:21:39.261Z,31.12
2023-04-21T17:24:07.034Z,31.98
2023-04-21T17:26:34.494Z,32.34
2023-04-21T17:29:02.042Z,32.56
2023-04-21T17:31:30.530Z,32.71
2023-04-21T17:33:58.030Z,32.82
2023-04-21T17:36:27.524Z,32.84
2023-04-21T17:38:56.860Z,33.38
2023-04-21T17:41:25.650Z,33.86
2023-04-21T17:43:54.929Z,34.10
2023-04-21T17:46:25.233Z,34.19
2023-04-21T17:48:52.915Z,34.08
2023-04-21T17:51:20.412Z,33.98
2023-04-21T17:53:48.072Z,34.12
2023-04-21T17:56:15.897Z,34.50
2023-04-21T17:58:43.340Z,35.14
2023-04-21T18:01:11.048Z,35.26
2023-04-21T18:03:41.430Z,35.57
2023-04-21T18:06:11.279Z,35.83
2023-04-21T18:08:39.056Z,35.78
2023-04-21T18:11:06.645Z,35.64
2023-04-21T18:13:34.240Z,35.48
2023-04-21T18:16:01.945Z,35.62
2023-04-21T18:18:29.528Z,35.99
2023-04-21T18:20:57.156Z,35.85
2023-04-21T18:23:24.903Z,35.64
2023-04-21T18:25:52.266Z,35.87
2023-04-21T18:28:19.657Z,36.00
2023-04-21T18:30:47.730Z,35.92
2023-04-21T18:33:15.293Z,36.29
2023-04-21T18:35:42.847Z,36.53
2023-04-21T18:38:11.881Z,36.55
2023-04-21T18:40:40.677Z,37.32
2023-04-21T18:43:09.730Z,36.78
2023-04-21T18:45:37.930Z,37.55
2023-04-21T18:48:05.801Z,37.63
2023-04-21T18:50:35.932Z,37.46
2023-04-21T18:53:07.126Z,37.62
2023-04-21T18:55:35.971Z,38.13
2023-04-21T18:58:03.646Z,38.19
2023-04-21T19:00:32.283Z,37.88
2023-04-21T19:03:01.219Z,38.09
2023-04-21T19:05:31.582Z,38.05
2023-04-21T19:07:59.559Z,37.93
2023-04-21T19:10:27.689Z,37.96
2023-04-21T19:12:55.342Z,37.80
2023-04-21T19:15:23.213Z,38.78
2023-04-21T19:17:50.848Z,38.76
2023-04-21T19:20:18.415Z,39.22
2023-04-21T19:22:46.264Z,39.10
2023-04-21T19:25:13.846Z,38.43
2023-04-21T19:27:41.540Z,38.74
2023-04-21T19:30:09.868Z,38.57
2023-04-21T19:32:37.857Z,39.18
2023-04-21T19:35:05.617Z,37.97
2023-04-21T19:37:35.240Z,38.50
2023-04-21T19:40:03.805Z,37.46
2023-04-21T19:42:31.453Z,38.01
2023-04-21T19:44:59.461Z,38.40
2023-04-21T19:47:26.978Z,37.65
2023-04-21T19:49:54.357Z,38.11
2023-04-21T19:52:22.039Z,38.29
2023-04-21T19:54:49.414Z,38.19
2023-04-21T19:57:17.471Z,38.49
2023-04-21T19:59:45.340Z,38.23
2023-04-21T20:02:12.848Z,38.27
2023-04-21T20:04:41.070Z,38.77
2023-04-21T20:07:08.775Z,38.61
2023-04-21T20:09:36.472Z,38.63
2023-04-21T20:12:04.390Z,38.49
2023-04-21T20:14:31.822Z,38.60
2023-04-21T20:16:59.425Z,38.75
2023-04-21T20:19:27.159Z,39.44
2023-04-21T20:21:54.766Z,39.43
2023-04-21T20:24:23.092Z,39.59
2023-04-21T20:26:50.789Z,39.19
2023-04-21T20:29:18.261Z,39.37
2023-04-21T20:31:46.458Z,39.74
2023-04-21T20:34:14.260Z,39.38
2023-04-21T20:36:41.814Z,39.74
2023-04-21T20:39:09.398Z,40.16
2023-04-21T20:41:37.196Z,39.68
2023-04-21T20:44:05.572Z,40.60
2023-04-21T20:46:33.453Z,40.50
2023-04-21T20:49:01.164Z,40.89
2023-04-21T20:51:29.350Z,40.73
2023-04-21T20:53:56.772Z,40.12
2023-04-21T20:56:24.965Z,40.39
2023-04-21T20:58:52.411Z,40.14
2023-04-21T21:01:19.827Z,40.98
2023-04-21T21:03:47.687Z,41.02
2023-04-21T21:06:15.700Z,41.27
2023-04-21T21:08:43.193Z,40.45
2023-04-21T21:11:11.396Z,40.38
2023-04-21T21:13:38.970Z,40.35
2023-04-21T21:16:06.631Z,40.91
2023-04-21T21:18:35.826Z,40.84
2023-04-21T21:21:06.575Z,40.81
2023-04-21T21:23:34.326Z,40.62
2023-04-21T21:26:01.744Z,40.36
2023-04-21T21:28:30.425Z,40.46
2023-04-21T21:30:58.107Z,40.24
2023-04-21T21:33:25.522Z,39.82
2023-04-21T21:35:52.917Z,40.04
2023-04-21T21:38:20.617Z,40.66
2023-04-21T21:40:48.193Z,40.42
2023-04-21T21:43:16.298Z,40.78
2023-04-21T21:45:43.955Z,40.86
2023-04-21T21:48:11.736Z,40.67
2023-04-21T21:50:39.150Z,40.88
2023-04-21T21:53:07.239Z,41.11
2023-04-21T21:55:34.684Z,41.69
2023-04-21T21:58:04.011Z,41.84
2023-04-21T22:00:31.959Z,41.60
2023-04-21T22:03:00.016Z,41.13
2023-04-21T22:05:27.593Z,41.16
2023-04-21T22:07:56.943Z,41.29
2023-04-21T22:10:24.824Z,41.67
2023-04-21T22:12:55.736Z,41.81
2023-04-21T22:15:23.100Z,41.80
2023-04-21T22:17:50.818Z,41.63
2023-04-21T22:20:19.223Z,41.80
2023-04-21T22:22:46.635Z,42.60
2023-04-21T22:25:14.435Z,42.49
2023-04-21T22:27:41.872Z,42.51
2023-04-21T22:30:09.589Z,42.56
2023-04-21T22:32:37.366Z,43.33
2023-04-21T22:35:05.176Z,44.09
2023-04-21T22:37:32.568Z,43.82
2023-04-21T22:40:00.790Z,43.89
2023-04-21T22:42:28.452Z,43.93
2023-04-21T22:44:56.214Z,44.04
2023-04-21T22:47:24.020Z,44.07
2023-04-21T22:49:51.615Z,44.18
2023-04-21T22:52:19.024Z,44.18
2023-04-21T22:54:46.690Z,43.77
2023-04-21T22:57:14.783Z,43.84
2023-04-21T22:59:42.181Z,43.57
2023-04-21T23:02:09.904Z,43.54
2023-04-21T23:04:37.353Z,43.78
2023-04-21T23:07:05.188Z,43.90
2023-04-21T23:09:32.849Z,44.04
2023-04-21T23:12:01.317Z,44.10
2023-04-21T23:14:28.852Z,44.54
2023-04-21T23:16:56.718Z,45.14
2023-04-21T23:19:24.187Z,44.72
2023-04-21T23:21:51.600Z,44.53
2023-04-21T23:24:19.226Z,44.26
2023-04-21T23:26:46.616Z,44.07
2023-04-21T23:29:13.991Z,44.27
2023-04-21T23:31:41.721Z,43.91
2023-04-21T23:34:09.193Z,43.59
2023-04-21T23:36:36.626Z,43.45
2023-04-21T23:39:04.583Z,43.60
2023-04-21T23:41:32.070Z,43.24
2023-04-21T23:43:59.536Z,43.18
2023-04-21T23:46:27.309Z,43.19
2023-04-21T23:48:54.982Z,43.52
2023-04-21T23:51:22.777Z,43.33
2023-04-21T23:53:50.640Z,43.24
2023-04-21T23:56:18.447Z,43.58
2023-04-21T23:58:45.873Z,43.58
